Ifestos I — SV4139 — position and weather

sailwx.info

Track history (hours):
 
Tides and Currents Weather Stations Pressure Air Temp Water Temp Dewpoint Dewpoint Depression Visibility Wind Speed Wind Dir Waves Ship Positions

Ifestos I

Last reported at 2016-Apr-29 19:22 UTC. Time now 2016-May-01 13:36 UTC.
Position N 37°57' E 023°37'.

Length 30 m.

Type: Tug. MMSI: 237070500.

Date/timePositionNaut miles runAvg speedWind from/ knotsBaromVisibWave heightAir tempDewpointWater temp
2016-Apr-29 19:22N 37°57' E 023°37'0 0.0
2016-Apr-29 18:33N 37°57' E 023°37'0 0.0
2016-Apr-29 17:33N 37°57' E 023°37'0 0.0
2016-Apr-29 16:33N 37°57' E 023°37'0 0.0
2016-Apr-29 15:33N 37°57' E 023°37'0 0.0
2016-Apr-29 14:33N 37°57' E 023°37'2 1.7
2016-Apr-29 13:33N 37°57' E 023°38'0 0.4
2016-Apr-29 12:33N 37°57' E 023°38'2 2.0
2016-Apr-29 11:33N 37°57' E 023°36'0 0.5
2016-Apr-29 10:34N 37°57' E 023°35'1 1.1
2016-Apr-29 09:33N 37°57' E 023°36'1 0.8
2016-Apr-29 08:33N 37°57' E 023°36'1 0.8
2016-Apr-29 07:33N 37°57' E 023°37'0 0.0
2016-Apr-29 06:33N 37°57' E 023°37'0 0.0
2016-Apr-29 05:33N 37°57' E 023°37'1 1.3
2016-Apr-29 04:33N 37°56' E 023°36'1 1.1
2016-Apr-29 03:33N 37°57' E 023°36'0 0.1
2016-Apr-28 21:33N 37°57' E 023°37'0 0.0
2016-Apr-28 20:33N 37°57' E 023°37'0 0.0
2016-Apr-28 19:33N 37°57' E 023°37'0 0.0
2016-Apr-28 18:33N 37°57' E 023°37'0 0.0
2016-Apr-28 17:33N 37°57' E 023°37'0 0.0
2016-Apr-28 16:33N 37°57' E 023°37'0 0.0
2016-Apr-28 15:33N 37°57' E 023°37'0 0.0
2016-Apr-28 14:33N 37°57' E 023°37'0 0.0
2016-Apr-28 13:33N 37°57' E 023°37'0 0.0
2016-Apr-28 12:33N 37°57' E 023°37'0 0.0
2016-Apr-28 11:33N 37°57' E 023°37'1 1.2
2016-Apr-28 10:33N 37°56' E 023°36'1 1.2
2016-Apr-28 09:33N 37°57' E 023°37'1 0.9
2016-Apr-28 08:33N 37°57' E 023°36'1 0.9
2016-Apr-28 07:33N 37°57' E 023°37'0 0.0
2016-Apr-28 06:33N 37°57' E 023°37'0 0.0
2016-Apr-28 05:33N 37°57' E 023°37'2 1.6
2016-Apr-28 04:33N 37°57' E 023°35'2 1.6
2016-Apr-28 03:33N 37°57' E 023°37'0 0.0
2016-Apr-27 17:28N 37°57' E 023°37'0 0.0
2016-Apr-27 16:34N 37°57' E 023°37'0 0.0
2016-Apr-27 15:33N 37°57' E 023°37'0 0.0
2016-Apr-27 14:33N 37°57' E 023°37'0 0.0
2016-Apr-27 13:33N 37°57' E 023°37'0 0.0
2016-Apr-27 11:33N 37°57' E 023°37'1 1.4
2016-Apr-27 10:33N 37°57' E 023°38'0 0.0
2016-Apr-27 09:33N 37°57' E 023°38'0 0.0
2016-Apr-27 08:33N 37°57' E 023°38'0 0.0
2016-Apr-27 07:33N 37°57' E 023°38'0 0.0
2016-Apr-27 06:33N 37°57' E 023°38'0 0.0
2016-Apr-27 05:33N 37°57' E 023°38'0 0.0
2016-Apr-27 04:33N 37°57' E 023°38'0 0.0
2016-Apr-27 03:33N 37°57' E 023°38'0 0.0
2016-Apr-27 02:33N 37°57' E 023°38'0 0.0
2016-Apr-27 01:33N 37°57' E 023°38'0 0.0
2016-Apr-27 00:33N 37°57' E 023°38'0 0.0
2016-Apr-26 23:33N 37°57' E 023°38'0 0.0
2016-Apr-26 22:33N 37°57' E 023°38'0 0.0
2016-Apr-26 21:33N 37°57' E 023°38'0 0.0
2016-Apr-26 20:33N 37°57' E 023°38'0 0.0
2016-Apr-26 19:33N 37°57' E 023°38'0 0.0
2016-Apr-26 18:33N 37°57' E 023°38'0 0.0
2016-Apr-26 17:33N 37°57' E 023°38'0 0.0
2016-Apr-26 16:33N 37°57' E 023°38'0 0.1
2016-Apr-26 15:33N 37°57' E 023°38'0 0.0
2016-Apr-26 14:33N 37°57' E 023°38'0 0.0
2016-Apr-26 13:33N 37°57' E 023°38'0 0.0
2016-Apr-26 12:33N 37°57' E 023°38'0 0.1
2016-Apr-26 11:33N 37°57' E 023°38'0 0.0
2016-Apr-26 10:33N 37°57' E 023°38'2 1.5
2016-Apr-26 09:33N 37°57' E 023°37'0 0.1
2016-Apr-26 08:33N 37°57' E 023°37'0 0.0
2016-Apr-26 07:33N 37°57' E 023°37'0 0.0
2016-Apr-26 06:33N 37°57' E 023°37'0 0.0
2016-Apr-26 05:34N 37°57' E 023°37'1 0.9
2016-Apr-26 04:33N 37°57' E 023°36'1 1.0
2016-Apr-26 03:33N 37°57' E 023°37'0 0.0
2016-Apr-25 15:06N 37°57' E 023°37'0 0.0
2016-Apr-25 14:33N 37°57' E 023°37'0 0.0
2016-Apr-25 13:33N 37°57' E 023°37'0 0.0
2016-Apr-25 12:34N 37°57' E 023°37'0 0.0
2016-Apr-25 11:33N 37°57' E 023°37'4 4.4
2016-Apr-25 10:33N 38°01' E 023°33'2 1.5
2016-Apr-25 09:33N 38°01' E 023°31'0 0.2
2016-Apr-25 08:33N 38°01' E 023°31'0 0.0
2016-Apr-25 07:33N 38°01' E 023°31'5 5.4
2016-Apr-25 06:33N 37°57' E 023°37'0 0.0
2016-Apr-25 05:33N 37°57' E 023°37'0 0.3
2016-Apr-25 04:34N 37°58' E 023°36'1 0.8
2016-Apr-25 03:34N 37°57' E 023°35'1 0.0
2016-Apr-23 15:33N 37°57' E 023°37'0 0.0
2016-Apr-23 14:33N 37°57' E 023°37'0 0.0
2016-Apr-23 13:33N 37°57' E 023°37'0 0.0
2016-Apr-23 12:33N 37°57' E 023°37'0 0.0
2016-Apr-23 11:33N 37°57' E 023°37'0 0.0
2016-Apr-23 10:33N 37°57' E 023°37'0 0.0
2016-Apr-23 09:33N 37°57' E 023°37'2 2.2
2016-Apr-23 08:33N 37°58' E 023°34'4 4.2
2016-Apr-23 07:33N 38°02' E 023°36'7 6.9
2016-Apr-23 06:33N 38°00' E 023°27'4 3.6
2016-Apr-23 05:33N 37°58' E 023°23'1 1.5
2016-Apr-23 04:33N 37°58' E 023°25'7 6.5
2016-Apr-23 03:33N 37°59' E 023°33'3 0.3
2016-Apr-22 16:33N 37°57' E 023°37'0 0.0
2016-Apr-22 15:33N 37°57' E 023°37'0 0.0
2016-Apr-22 14:33N 37°57' E 023°37'0 0.0
2016-Apr-22 13:33N 37°57' E 023°37'0 0.0
2016-Apr-22 12:33N 37°57' E 023°37'0 0.0
2016-Apr-22 11:33N 37°57' E 023°37'1 1.0
2016-Apr-22 10:33N 37°57' E 023°35'1 1.0
2016-Apr-22 09:33N 37°57' E 023°37'0 0.1
2016-Apr-22 08:33N 37°58' E 023°36'0 0.1
2016-Apr-22 07:33N 37°57' E 023°37'0 0.0
2016-Apr-22 06:33N 37°57' E 023°37'0 0.0
2016-Apr-22 05:33N 37°57' E 023°37'0 0.0
2016-Apr-22 04:33N 37°57' E 023°37'0 0.0
2016-Apr-22 03:33N 37°57' E 023°37'0 0.0
2016-Apr-21 19:18N 37°57' E 023°37'0 0.0
2016-Apr-21 18:33N 37°57' E 023°37'0 0.0
2016-Apr-21 17:33N 37°57' E 023°37'0 0.0
2016-Apr-21 16:33N 37°57' E 023°37'0 0.0
2016-Apr-21 15:33N 37°57' E 023°37'0 0.0
2016-Apr-21 14:33N 37°57' E 023°37'0 0.0
2016-Apr-21 13:33N 37°57' E 023°37'0 0.0
2016-Apr-21 12:33N 37°57' E 023°37'0 0.0
2016-Apr-21 11:33N 37°57' E 023°37'1 0.7
2016-Apr-21 10:33N 37°57' E 023°36'0 0.1
2016-Apr-21 09:33N 37°57' E 023°36'1 0.6
2016-Apr-21 08:33N 37°57' E 023°37'0 0.0
2016-Apr-21 07:33N 37°57' E 023°37'0 0.0
2016-Apr-21 06:33N 37°57' E 023°37'0 0.0
2016-Apr-21 05:33N 37°57' E 023°37'2 2.1
2016-Apr-21 04:34N 37°55' E 023°36'2 2.1
2016-Apr-21 03:33N 37°57' E 023°37'0 0.0
2016-Apr-21 00:33N 37°57' E 023°37'0 0.0
2016-Apr-20 23:33N 37°57' E 023°37'0 0.0
2016-Apr-20 22:33N 37°57' E 023°37'0 0.0
2016-Apr-20 21:32N 37°57' E 023°37'0 0.0
2016-Apr-20 20:33N 37°57' E 023°37'0 0.0
2016-Apr-20 19:33N 37°57' E 023°37'0 0.0
2016-Apr-20 18:33N 37°57' E 023°37'0 0.0
2016-Apr-20 17:33N 37°57' E 023°37'0 0.0
2016-Apr-20 16:33N 37°57' E 023°37'0 0.0
2016-Apr-20 15:32N 37°57' E 023°37'0 0.0
2016-Apr-20 14:33N 37°57' E 023°37'0 0.0
2016-Apr-20 13:33N 37°57' E 023°37'0 0.0
2016-Apr-20 12:33N 37°57' E 023°37'0 0.3
2016-Apr-20 11:33N 37°58' E 023°36'0 0.4
2016-Apr-20 10:33N 37°58' E 023°36'1 0.6
2016-Apr-20 09:33N 37°57' E 023°36'0 0.5
2016-Apr-20 08:34N 37°57' E 023°37'0 0.0
2016-Apr-20 07:33N 37°57' E 023°37'0 0.0
2016-Apr-20 06:33N 37°57' E 023°37'1 0.7
2016-Apr-20 05:33N 37°57' E 023°36'1 1.3
2016-Apr-20 04:33N 37°56' E 023°36'1 1.3
2016-Apr-20 03:33N 37°57' E 023°37'0 0.0
2016-Apr-19 19:33N 37°57' E 023°37'  
Track history (hours):
 
Tides and Currents Weather Stations Pressure Air Temp Water Temp Dewpoint Dewpoint Depression Visibility Wind Speed Wind Dir Waves Ship Positions

Ifestos I

Last reported at 2016-Apr-29 19:22 UTC. Time now 2016-May-01 13:36 UTC.
Position N 37°57' E 023°37'.

Length 30 m.

Type: Tug. MMSI: 237070500.

Date/timePositionNaut miles runAvg speedWind from/ knotsBaromVisibWave heightAir tempDewpointWater temp
2016-Apr-29 19:22N 37°57' E 023°37'0 0.0
2016-Apr-29 18:33N 37°57' E 023°37'0 0.0
2016-Apr-29 17:33N 37°57' E 023°37'0 0.0
2016-Apr-29 16:33N 37°57' E 023°37'0 0.0
2016-Apr-29 15:33N 37°57' E 023°37'0 0.0
2016-Apr-29 14:33N 37°57' E 023°37'2 1.7
2016-Apr-29 13:33N 37°57' E 023°38'0 0.4
2016-Apr-29 12:33N 37°57' E 023°38'2 2.0
2016-Apr-29 11:33N 37°57' E 023°36'0 0.5
2016-Apr-29 10:34N 37°57' E 023°35'1 1.1
2016-Apr-29 09:33N 37°57' E 023°36'1 0.8
2016-Apr-29 08:33N 37°57' E 023°36'1 0.8
2016-Apr-29 07:33N 37°57' E 023°37'0 0.0
2016-Apr-29 06:33N 37°57' E 023°37'0 0.0
2016-Apr-29 05:33N 37°57' E 023°37'1 1.3
2016-Apr-29 04:33N 37°56' E 023°36'1 1.1
2016-Apr-29 03:33N 37°57' E 023°36'0 0.1
2016-Apr-28 21:33N 37°57' E 023°37'0 0.0
2016-Apr-28 20:33N 37°57' E 023°37'0 0.0
2016-Apr-28 19:33N 37°57' E 023°37'0 0.0
2016-Apr-28 18:33N 37°57' E 023°37'0 0.0
2016-Apr-28 17:33N 37°57' E 023°37'0 0.0
2016-Apr-28 16:33N 37°57' E 023°37'0 0.0
2016-Apr-28 15:33N 37°57' E 023°37'0 0.0
2016-Apr-28 14:33N 37°57' E 023°37'0 0.0
2016-Apr-28 13:33N 37°57' E 023°37'0 0.0
2016-Apr-28 12:33N 37°57' E 023°37'0 0.0
2016-Apr-28 11:33N 37°57' E 023°37'1 1.2
2016-Apr-28 10:33N 37°56' E 023°36'1 1.2
2016-Apr-28 09:33N 37°57' E 023°37'1 0.9
2016-Apr-28 08:33N 37°57' E 023°36'1 0.9
2016-Apr-28 07:33N 37°57' E 023°37'0 0.0
2016-Apr-28 06:33N 37°57' E 023°37'0 0.0
2016-Apr-28 05:33N 37°57' E 023°37'2 1.6
2016-Apr-28 04:33N 37°57' E 023°35'2 1.6
2016-Apr-28 03:33N 37°57' E 023°37'0 0.0
2016-Apr-27 17:28N 37°57' E 023°37'0 0.0
2016-Apr-27 16:34N 37°57' E 023°37'0 0.0
2016-Apr-27 15:33N 37°57' E 023°37'0 0.0
2016-Apr-27 14:33N 37°57' E 023°37'0 0.0
2016-Apr-27 13:33N 37°57' E 023°37'0 0.0
2016-Apr-27 11:33N 37°57' E 023°37'1 1.4
2016-Apr-27 10:33N 37°57' E 023°38'0 0.0
2016-Apr-27 09:33N 37°57' E 023°38'0 0.0
2016-Apr-27 08:33N 37°57' E 023°38'0 0.0
2016-Apr-27 07:33N 37°57' E 023°38'0 0.0
2016-Apr-27 06:33N 37°57' E 023°38'0 0.0
2016-Apr-27 05:33N 37°57' E 023°38'0 0.0
2016-Apr-27 04:33N 37°57' E 023°38'0 0.0
2016-Apr-27 03:33N 37°57' E 023°38'0 0.0
2016-Apr-27 02:33N 37°57' E 023°38'0 0.0
2016-Apr-27 01:33N 37°57' E 023°38'0 0.0
2016-Apr-27 00:33N 37°57' E 023°38'0 0.0
2016-Apr-26 23:33N 37°57' E 023°38'0 0.0
2016-Apr-26 22:33N 37°57' E 023°38'0 0.0
2016-Apr-26 21:33N 37°57' E 023°38'0 0.0
2016-Apr-26 20:33N 37°57' E 023°38'0 0.0
2016-Apr-26 19:33N 37°57' E 023°38'0 0.0
2016-Apr-26 18:33N 37°57' E 023°38'0 0.0
2016-Apr-26 17:33N 37°57' E 023°38'0 0.0
2016-Apr-26 16:33N 37°57' E 023°38'0 0.1
2016-Apr-26 15:33N 37°57' E 023°38'0 0.0
2016-Apr-26 14:33N 37°57' E 023°38'0 0.0
2016-Apr-26 13:33N 37°57' E 023°38'0 0.0
2016-Apr-26 12:33N 37°57' E 023°38'0 0.1
2016-Apr-26 11:33N 37°57' E 023°38'0 0.0
2016-Apr-26 10:33N 37°57' E 023°38'2 1.5
2016-Apr-26 09:33N 37°57' E 023°37'0 0.1
2016-Apr-26 08:33N 37°57' E 023°37'0 0.0
2016-Apr-26 07:33N 37°57' E 023°37'0 0.0
2016-Apr-26 06:33N 37°57' E 023°37'0 0.0
2016-Apr-26 05:34N 37°57' E 023°37'1 0.9
2016-Apr-26 04:33N 37°57' E 023°36'1 1.0
2016-Apr-26 03:33N 37°57' E 023°37'0 0.0
2016-Apr-25 15:06N 37°57' E 023°37'0 0.0
2016-Apr-25 14:33N 37°57' E 023°37'0 0.0
2016-Apr-25 13:33N 37°57' E 023°37'0 0.0
2016-Apr-25 12:34N 37°57' E 023°37'0 0.0
2016-Apr-25 11:33N 37°57' E 023°37'4 4.4
2016-Apr-25 10:33N 38°01' E 023°33'2 1.5
2016-Apr-25 09:33N 38°01' E 023°31'0 0.2
2016-Apr-25 08:33N 38°01' E 023°31'0 0.0
2016-Apr-25 07:33N 38°01' E 023°31'5 5.4
2016-Apr-25 06:33N 37°57' E 023°37'0 0.0
2016-Apr-25 05:33N 37°57' E 023°37'0 0.3
2016-Apr-25 04:34N 37°58' E 023°36'1 0.8
2016-Apr-25 03:34N 37°57' E 023°35'1 0.0
2016-Apr-23 15:33N 37°57' E 023°37'0 0.0
2016-Apr-23 14:33N 37°57' E 023°37'0 0.0
2016-Apr-23 13:33N 37°57' E 023°37'0 0.0
2016-Apr-23 12:33N 37°57' E 023°37'0 0.0
2016-Apr-23 11:33N 37°57' E 023°37'0 0.0
2016-Apr-23 10:33N 37°57' E 023°37'0 0.0
2016-Apr-23 09:33N 37°57' E 023°37'2 2.2
2016-Apr-23 08:33N 37°58' E 023°34'4 4.2
2016-Apr-23 07:33N 38°02' E 023°36'7 6.9
2016-Apr-23 06:33N 38°00' E 023°27'4 3.6
2016-Apr-23 05:33N 37°58' E 023°23'1 1.5
2016-Apr-23 04:33N 37°58' E 023°25'7 6.5
2016-Apr-23 03:33N 37°59' E 023°33'3 0.3
2016-Apr-22 16:33N 37°57' E 023°37'0 0.0
2016-Apr-22 15:33N 37°57' E 023°37'0 0.0
2016-Apr-22 14:33N 37°57' E 023°37'0 0.0
2016-Apr-22 13:33N 37°57' E 023°37'0 0.0
2016-Apr-22 12:33N 37°57' E 023°37'0 0.0
2016-Apr-22 11:33N 37°57' E 023°37'1 1.0
2016-Apr-22 10:33N 37°57' E 023°35'1 1.0
2016-Apr-22 09:33N 37°57' E 023°37'0 0.1
2016-Apr-22 08:33N 37°58' E 023°36'0 0.1
2016-Apr-22 07:33N 37°57' E 023°37'0 0.0
2016-Apr-22 06:33N 37°57' E 023°37'0 0.0
2016-Apr-22 05:33N 37°57' E 023°37'0 0.0
2016-Apr-22 04:33N 37°57' E 023°37'0 0.0
2016-Apr-22 03:33N 37°57' E 023°37'0 0.0
2016-Apr-21 19:18N 37°57' E 023°37'0 0.0
2016-Apr-21 18:33N 37°57' E 023°37'0 0.0
2016-Apr-21 17:33N 37°57' E 023°37'0 0.0
2016-Apr-21 16:33N 37°57' E 023°37'0 0.0
2016-Apr-21 15:33N 37°57' E 023°37'0 0.0
2016-Apr-21 14:33N 37°57' E 023°37'0 0.0
2016-Apr-21 13:33N 37°57' E 023°37'0 0.0
2016-Apr-21 12:33N 37°57' E 023°37'0 0.0
2016-Apr-21 11:33N 37°57' E 023°37'1 0.7
2016-Apr-21 10:33N 37°57' E 023°36'0 0.1
2016-Apr-21 09:33N 37°57' E 023°36'1 0.6
2016-Apr-21 08:33N 37°57' E 023°37'0 0.0
2016-Apr-21 07:33N 37°57' E 023°37'0 0.0
2016-Apr-21 06:33N 37°57' E 023°37'0 0.0
2016-Apr-21 05:33N 37°57' E 023°37'2 2.1
2016-Apr-21 04:34N 37°55' E 023°36'2 2.1
2016-Apr-21 03:33N 37°57' E 023°37'0 0.0
2016-Apr-21 00:33N 37°57' E 023°37'0 0.0
2016-Apr-20 23:33N 37°57' E 023°37'0 0.0
2016-Apr-20 22:33N 37°57' E 023°37'0 0.0
2016-Apr-20 21:32N 37°57' E 023°37'0 0.0
2016-Apr-20 20:33N 37°57' E 023°37'0 0.0
2016-Apr-20 19:33N 37°57' E 023°37'0 0.0
2016-Apr-20 18:33N 37°57' E 023°37'0 0.0
2016-Apr-20 17:33N 37°57' E 023°37'0 0.0
2016-Apr-20 16:33N 37°57' E 023°37'0 0.0
2016-Apr-20 15:32N 37°57' E 023°37'0 0.0
2016-Apr-20 14:33N 37°57' E 023°37'0 0.0
2016-Apr-20 13:33N 37°57' E 023°37'0 0.0
2016-Apr-20 12:33N 37°57' E 023°37'0 0.3
2016-Apr-20 11:33N 37°58' E 023°36'0 0.4
2016-Apr-20 10:33N 37°58' E 023°36'1 0.6
2016-Apr-20 09:33N 37°57' E 023°36'0 0.5
2016-Apr-20 08:34N 37°57' E 023°37'0 0.0
2016-Apr-20 07:33N 37°57' E 023°37'0 0.0
2016-Apr-20 06:33N 37°57' E 023°37'1 0.7
2016-Apr-20 05:33N 37°57' E 023°36'1 1.3
2016-Apr-20 04:33N 37°56' E 023°36'1 1.3
2016-Apr-20 03:33N 37°57' E 023°37'0 0.0
2016-Apr-19 19:33N 37°57' E 023°37'  

Dump ship's entire track history